Time;durP1;ratioP1;P1;durP2;ratioP2;P2;SDS_P1;SDS_P2;PMS_P1;PMS_P2;Temp;Humidity;BMP_temperature;BMP_pressure;BME280_temperature;BME280_humidity;BME280_pressure;Samples;Min_cycle;Max_cycle;Signal;HPM_P1;HPM_P2
2022/03/28 00:00:39;;;;;;;0.65;0.65;;;11.70;98.10;;;;;;5055350;28;20057;-73
2022/03/28 00:03:05;;;;;;;2.88;0.75;;;11.60;98.20;;;;;;5055373;28;20438;-80
2022/03/28 00:05:32;;;;;;;0.35;0.35;;;11.60;98.30;;;;;;5072868;28;20013;-73
2022/03/28 00:07:58;;;;;;;0.38;0.38;;;11.50;98.40;;;;;;5055665;28;20496;-73
2022/03/28 00:10:24;;;;;;;0.30;0.30;;;11.40;98.50;;;;;;5055202;28;20043;-73
2022/03/28 00:12:50;;;;;;;0.10;0.10;;;11.40;98.70;;;;;;5054667;28;20075;-81
2022/03/28 00:15:16;;;;;;;6.63;1.70;;;11.40;98.80;;;;;;5055516;28;20029;-73
2022/03/28 00:17:42;;;;;;;0.40;0.35;;;11.40;98.70;;;;;;5054909;28;20029;-74
2022/03/28 00:20:12;;;;;;;1.42;0.63;;;11.40;98.80;;;;;;5055115;28;20021;-80
2022/03/28 00:22:39;;;;;;;0.28;0.28;;;11.40;98.80;;;;;;5055598;28;20029;-74
2022/03/28 00:25:06;;;;;;;0.28;0.28;;;11.40;98.70;;;;;;5056255;28;20021;-73
2022/03/28 00:27:32;;;;;;;1.20;0.80;;;11.50;98.40;;;;;;5053581;28;20039;-74
2022/03/28 00:29:57;;;;;;;1.85;0.43;;;11.60;98.40;;;;;;5055184;28;20025;-81
2022/03/28 00:32:23;;;;;;;0.22;0.17;;;11.60;98.00;;;;;;5054866;28;20017;-74
2022/03/28 00:34:50;;;;;;;1.27;0.80;;;11.70;97.90;;;;;;5055001;28;20102;-74
2022/03/28 00:37:16;;;;;;;0.22;0.22;;;11.70;97.80;;;;;;5054946;28;20017;-73
2022/03/28 00:39:41;;;;;;;1.45;1.35;;;11.80;97.70;;;;;;5054931;28;20079;-74
2022/03/28 00:42:07;;;;;;;5.72;1.02;;;11.80;97.60;;;;;;5055974;28;20029;-80
2022/03/28 00:44:34;;;;;;;0.22;0.22;;;11.80;97.60;;;;;;5054821;28;20052;-80
2022/03/28 00:47:00;;;;;;;2.47;0.95;;;11.80;97.60;;;;;;5054446;28;20027;-80
2022/03/28 00:49:26;;;;;;;0.55;0.43;;;11.70;97.70;;;;;;5046151;28;20025;-81
2022/03/28 00:51:52;;;;;;;0.63;0.52;;;11.70;97.80;;;;;;5043521;28;20025;-73
2022/03/28 00:54:19;;;;;;;0.63;0.35;;;11.70;97.90;;;;;;5054479;28;20108;-81
2022/03/28 00:56:47;;;;;;;14.95;1.60;;;11.60;97.90;;;;;;5054866;28;20109;-73
2022/03/28 00:59:13;;;;;;;0.15;0.15;;;11.60;98.00;;;;;;5054659;28;20119;-74
2022/03/28 01:01:39;;;;;;;2.30;1.45;;;11.60;98.10;;;;;;5056316;28;20100;-81
2022/03/28 01:04:08;;;;;;;5.05;1.15;;;11.70;98.00;;;;;;5053951;28;20029;-74
2022/03/28 01:06:36;;;;;;;2.33;1.10;;;11.60;98.00;;;;;;5054176;28;20614;-73
2022/03/28 01:09:03;;;;;;;1.20;0.77;;;11.60;98.10;;;;;;5054662;28;20044;-81
2022/03/28 01:11:31;;;;;;;1.80;1.35;;;11.60;98.20;;;;;;5053496;28;20100;-81
2022/03/28 01:13:58;;;;;;;0.93;0.93;;;11.50;98.10;;;;;;5052561;28;20106;-80
2022/03/28 01:16:23;;;;;;;0.30;0.30;;;11.50;98.30;;;;;;5054526;28;20500;-73
2022/03/28 01:18:49;;;;;;;2.50;1.40;;;11.40;98.40;;;;;;5053312;28;20124;-73
2022/03/28 01:21:17;;;;;;;1.25;0.57;;;11.40;98.60;;;;;;5053414;28;20074;-80
2022/03/28 01:23:43;;;;;;;0.80;0.60;;;11.30;98.80;;;;;;5055310;28;20027;-73
2022/03/28 01:26:09;;;;;;;0.63;0.52;;;11.20;99.00;;;;;;5054084;28;20395;-80
2022/03/28 01:28:34;;;;;;;15.60;1.67;;;11.20;99.10;;;;;;5054001;28;20025;-80
2022/03/28 01:31:00;;;;;;;2.22;1.13;;;11.20;99.20;;;;;;5054016;28;20025;-76
2022/03/28 01:33:26;;;;;;;1.45;1.10;;;11.20;99.30;;;;;;5052218;28;20488;-73
2022/03/28 01:35:52;;;;;;;0.65;0.20;;;11.20;99.30;;;;;;5053974;28;20021;-81
2022/03/28 01:38:19;;;;;;;7.38;1.85;;;11.20;99.40;;;;;;5053184;28;20025;-81
2022/03/28 01:40:50;;;;;;;3.53;2.72;;;11.20;99.30;;;;;;5055091;28;20017;-72
2022/03/28 01:43:16;;;;;;;2.38;1.23;;;11.20;99.30;;;;;;5053774;28;20467;-73
2022/03/28 01:45:42;;;;;;;0.13;0.13;;;11.30;99.40;;;;;;5053716;28;20048;-74
2022/03/28 01:48:08;;;;;;;0.80;0.65;;;11.30;99.30;;;;;;5052521;28;20056;-81
2022/03/28 01:50:35;;;;;;;0.03;0.03;;;11.30;99.40;;;;;;5053522;28;20021;-73
2022/03/28 01:53:01;;;;;;;1.38;1.10;;;11.30;99.40;;;;;;5053557;28;20472;-80
2022/03/28 01:55:27;;;;;;;0.10;0.10;;;11.20;99.40;;;;;;5052915;28;20404;-81
2022/03/28 01:57:53;;;;;;;0.00;0.00;;;11.20;99.30;;;;;;5053275;28;20033;-74
2022/03/28 02:00:24;;;;;;;2.33;0.85;;;11.20;99.20;;;;;;5054171;28;20032;-80
2022/03/28 02:02:51;;;;;;;4.03;1.05;;;11.30;99.10;;;;;;5052370;28;20051;-73
2022/03/28 02:05:18;;;;;;;1.23;1.13;;;11.30;99.00;;;;;;5053286;28;20024;-73
2022/03/28 02:07:49;;;;;;;1.75;0.98;;;11.30;99.00;;;;;;5053581;28;20028;-73
2022/03/28 02:10:17;;;;;;;0.25;0.25;;;11.30;99.00;;;;;;5053242;28;20511;-73
2022/03/28 02:12:43;;;;;;;1.02;1.02;;;11.30;99.10;;;;;;5052262;28;20025;-80
2022/03/28 02:15:10;;;;;;;1.85;0.88;;;11.30;99.20;;;;;;5053038;28;20021;-73
2022/03/28 02:17:39;;;;;;;0.43;0.35;;;11.20;99.40;;;;;;5051506;28;20040;-73
2022/03/28 02:20:08;;;;;;;4.28;0.85;;;11.20;99.50;;;;;;5052912;28;20396;-73
2022/03/28 02:22:34;;;;;;;0.95;0.95;;;11.10;99.70;;;;;;5053040;28;20017;-80
2022/03/28 02:25:00;;;;;;;0.32;0.32;;;11.00;99.90;;;;;;5051777;28;20541;-74
2022/03/28 02:27:28;;;;;;;1.88;1.73;;;11.00;99.90;;;;;;5040981;28;20129;-73
2022/03/28 02:29:54;;;;;;;0.47;0.32;;;10.90;99.90;;;;;;5032887;28;20471;-73
2022/03/28 02:32:20;;;;;;;0.00;0.00;;;10.80;99.90;;;;;;5032789;28;20025;-73
2022/03/28 02:34:45;;;;;;;3.00;0.98;;;10.80;99.90;;;;;;5033828;28;20048;-73
2022/03/28 02:37:11;;;;;;;1.55;0.90;;;10.70;99.90;;;;;;5040140;28;20021;-80
2022/03/28 02:39:37;;;;;;;0.30;0.30;;;10.70;99.90;;;;;;5052677;28;20029;-80
2022/03/28 02:42:04;;;;;;;2.40;1.42;;;10.60;99.90;;;;;;5052942;28;20392;-80
2022/03/28 02:44:30;;;;;;;1.65;0.35;;;10.70;99.90;;;;;;5052886;28;20047;-74
2022/03/28 02:46:56;;;;;;;1.17;0.55;;;10.70;99.90;;;;;;5052819;28;20024;-80
2022/03/28 02:49:22;;;;;;;0.13;0.13;;;10.70;99.90;;;;;;5052362;28;20033;-80
2022/03/28 02:51:48;;;;;;;1.55;1.10;;;10.70;99.90;;;;;;5052810;28;20438;-72
2022/03/28 02:54:13;;;;;;;0.88;0.88;;;10.70;99.90;;;;;;5053139;28;20029;-80
2022/03/28 02:56:39;;;;;;;0.82;0.77;;;10.70;99.90;;;;;;5052620;28;20025;-80
2022/03/28 02:59:05;;;;;;;0.13;0.13;;;10.60;99.90;;;;;;5052298;28;20381;-80
2022/03/28 03:01:31;;;;;;;0.10;0.10;;;10.60;99.90;;;;;;5052949;28;20025;-73
2022/03/28 03:03:57;;;;;;;0.63;0.63;;;10.60;99.90;;;;;;5052335;28;20091;-73
2022/03/28 03:06:22;;;;;;;1.27;1.15;;;10.70;99.90;;;;;;5052513;28;20541;-73
2022/03/28 03:08:48;;;;;;;1.17;0.47;;;10.70;99.90;;;;;;5053704;28;20025;-73
2022/03/28 03:11:14;;;;;;;0.98;0.93;;;10.70;99.90;;;;;;5053029;28;20115;-80
2022/03/28 03:13:39;;;;;;;2.20;1.67;;;10.80;99.90;;;;;;5052757;28;20096;-73
2022/03/28 03:16:05;;;;;;;0.32;0.32;;;10.90;99.90;;;;;;5056436;28;20488;-79
2022/03/28 03:18:31;;;;;;;2.35;1.15;;;11.00;99.60;;;;;;5056097;28;20029;-73
2022/03/28 03:20:58;;;;;;;0.60;0.60;;;11.00;99.30;;;;;;5056545;28;20102;-73
2022/03/28 03:23:24;;;;;;;1.88;1.48;;;11.10;99.20;;;;;;5056098;28;20017;-73
2022/03/28 03:25:50;;;;;;;1.65;0.57;;;11.10;98.90;;;;;;5056386;28;20094;-73
2022/03/28 03:28:16;;;;;;;1.65;1.42;;;11.10;98.80;;;;;;5037207;28;20037;-73
2022/03/28 03:30:42;;;;;;;2.67;2.00;;;11.10;98.70;;;;;;5036403;28;20036;-73
2022/03/28 03:33:08;;;;;;;2.28;1.10;;;11.10;98.60;;;;;;5035958;28;20040;-80
2022/03/28 03:35:34;;;;;;;0.30;0.30;;;11.00;98.70;;;;;;5036775;28;20400;-80
2022/03/28 03:38:00;;;;;;;2.28;1.98;;;10.90;98.80;;;;;;5049274;28;20032;-80
2022/03/28 03:40:25;;;;;;;1.65;1.20;;;10.90;98.80;;;;;;5056194;28;20031;-73
2022/03/28 03:42:51;;;;;;;0.80;0.43;;;10.80;98.90;;;;;;5055958;28;20056;-73
2022/03/28 03:45:17;;;;;;;2.17;0.85;;;10.80;98.70;;;;;;5057156;28;20099;-80
2022/03/28 03:47:43;;;;;;;2.08;1.55;;;10.80;98.60;;;;;;5055955;28;20059;-73
2022/03/28 03:50:10;;;;;;;2.53;0.95;;;10.80;98.50;;;;;;5055726;28;20043;-73
2022/03/28 03:52:37;;;;;;;0.82;0.80;;;10.80;98.30;;;;;;5055823;28;20045;-74
2022/03/28 03:55:04;;;;;;;3.03;1.45;;;10.80;98.40;;;;;;5055813;28;20472;-81
2022/03/28 03:57:30;;;;;;;0.38;0.38;;;10.90;97.80;;;;;;5055772;28;20104;-73
2022/03/28 03:59:55;;;;;;;0.17;0.15;;;10.90;97.50;;;;;;5058726;28;20092;-73
2022/03/28 04:02:21;;;;;;;1.00;0.90;;;10.90;97.20;;;;;;5055014;28;20031;-73
2022/03/28 04:04:47;;;;;;;0.10;0.10;;;11.10;96.80;;;;;;5055667;28;20069;-73
2022/03/28 04:07:13;;;;;;;6.22;1.20;;;11.20;96.50;;;;;;5055453;28;20381;-73
2022/03/28 04:09:39;;;;;;;2.00;0.93;;;11.30;96.10;;;;;;5055682;28;20476;-73
2022/03/28 04:12:05;;;;;;;6.20;2.38;;;11.30;96.00;;;;;;5056918;28;20025;-80
2022/03/28 04:14:31;;;;;;;0.40;0.40;;;11.30;95.80;;;;;;5054813;28;20017;-73
2022/03/28 04:17:00;;;;;;;0.65;0.65;;;11.30;95.80;;;;;;5055473;28;20094;-81
2022/03/28 04:19:26;;;;;;;2.13;1.48;;;11.30;95.70;;;;;;5055104;28;20032;-73
2022/03/28 04:21:52;;;;;;;0.63;0.63;;;11.30;95.70;;;;;;5055404;28;20021;-73
2022/03/28 04:24:18;;;;;;;0.45;0.40;;;11.30;95.60;;;;;;5055278;28;20396;-81
2022/03/28 04:26:43;;;;;;;0.00;0.00;;;11.30;95.60;;;;;;5048459;28;20024;-73
2022/03/28 04:29:10;;;;;;;1.67;1.58;;;11.30;95.50;;;;;;5068334;28;20034;-81
2022/03/28 04:31:40;;;;;;;0.85;0.85;;;11.30;95.50;;;;;;5035107;28;20467;-81
2022/03/28 04:34:07;;;;;;;0.20;0.20;;;11.30;95.50;;;;;;5034994;28;20103;-73
2022/03/28 04:36:33;;;;;;;1.05;0.93;;;11.20;95.60;;;;;;5035029;28;20030;-81
2022/03/28 04:38:59;;;;;;;2.35;1.45;;;11.30;95.50;;;;;;5034825;28;20037;-81
2022/03/28 04:41:25;;;;;;;0.03;0.03;;;11.30;95.40;;;;;;5034839;28;20025;-81
2022/03/28 04:43:51;;;;;;;0.00;0.00;;;11.30;95.50;;;;;;5035053;28;20103;-73
2022/03/28 04:46:17;;;;;;;0.47;0.47;;;11.20;95.50;;;;;;5035362;28;20111;-83
2022/03/28 04:48:43;;;;;;;0.95;0.80;;;11.20;95.60;;;;;;5036232;28;20392;-76
2022/03/28 04:51:09;;;;;;;0.10;0.10;;;11.20;95.50;;;;;;5037638;28;20518;-83
2022/03/28 04:53:35;;;;;;;0.73;0.73;;;11.20;95.50;;;;;;5054540;28;20494;-73
2022/03/28 04:56:00;;;;;;;4.78;1.33;;;11.20;95.60;;;;;;5055168;28;20025;-77
2022/03/28 04:58:26;;;;;;;1.15;1.08;;;11.10;95.80;;;;;;5054945;28;20029;-81
2022/03/28 05:00:52;;;;;;;0.43;0.43;;;10.90;95.90;;;;;;5054435;28;20036;-73
2022/03/28 05:03:18;;;;;;;4.85;1.35;;;10.90;96.00;;;;;;5054164;28;20017;-80
2022/03/28 05:05:44;;;;;;;0.68;0.68;;;10.90;96.00;;;;;;5064226;28;20564;-73
2022/03/28 05:08:10;;;;;;;0.90;0.65;;;10.80;96.10;;;;;;5053034;28;20033;-81
2022/03/28 05:10:36;;;;;;;1.13;0.63;;;10.80;96.00;;;;;;5054505;28;20488;-73
2022/03/28 05:13:02;;;;;;;0.65;0.47;;;10.80;96.00;;;;;;5053896;28;20024;-80
2022/03/28 05:15:28;;;;;;;0.20;0.20;;;10.90;96.00;;;;;;5053272;28;20057;-81
2022/03/28 05:17:53;;;;;;;2.60;0.85;;;10.90;96.20;;;;;;5053414;28;20024;-74
2022/03/28 05:20:19;;;;;;;1.75;1.02;;;11.00;95.90;;;;;;5054369;28;20098;-73
2022/03/28 05:22:45;;;;;;;0.50;0.50;;;10.90;95.90;;;;;;5053922;28;20322;-81
2022/03/28 05:25:11;;;;;;;0.45;0.38;;;10.90;95.90;;;;;;5053891;28;20025;-73
2022/03/28 05:27:47;;;;;;;8.63;1.17;;;10.90;96.00;;;;;;5053580;28;20051;-73
2022/03/28 05:30:14;;;;;;;0.20;0.10;;;10.80;96.00;;;;;;5053795;28;20492;-80
2022/03/28 05:32:42;;;;;;;3.97;1.35;;;10.80;96.00;;;;;;5051088;28;20028;-73
2022/03/28 05:35:08;;;;;;;1.25;0.85;;;10.80;96.00;;;;;;5053649;28;20091;-73
2022/03/28 05:37:35;;;;;;;1.00;0.47;;;10.80;96.00;;;;;;5052568;28;20496;-74
2022/03/28 05:40:02;;;;;;;0.88;0.88;;;10.80;96.00;;;;;;5053335;28;20078;-73
2022/03/28 05:42:28;;;;;;;2.40;0.85;;;10.70;96.10;;;;;;5049100;28;20353;-81
2022/03/28 05:44:54;;;;;;;1.33;0.95;;;10.70;96.20;;;;;;5051280;28;20045;-73
2022/03/28 05:47:19;;;;;;;0.43;0.38;;;10.60;96.30;;;;;;5051289;28;20515;-74
2022/03/28 05:49:45;;;;;;;14.18;0.52;;;10.60;96.20;;;;;;5053283;28;20025;-82
2022/03/28 05:52:11;;;;;;;0.00;0.00;;;10.60;96.20;;;;;;5052078;28;20037;-81
2022/03/28 05:54:37;;;;;;;1.45;0.75;;;10.60;96.30;;;;;;5053244;28;20017;-74
2022/03/28 05:57:02;;;;;;;1.17;0.88;;;10.50;96.30;;;;;;5065222;28;20009;-81
2022/03/28 05:59:28;;;;;;;6.93;1.67;;;10.60;96.20;;;;;;5072644;28;20040;-74
2022/03/28 06:01:54;;;;;;;7.55;2.35;;;10.60;96.30;;;;;;5065896;28;20033;-82
2022/03/28 06:04:20;;;;;;;0.85;0.85;;;10.60;96.20;;;;;;5052260;28;20032;-73
2022/03/28 06:06:46;;;;;;;0.70;0.70;;;10.60;96.30;;;;;;5062329;28;20404;-81
2022/03/28 06:09:12;;;;;;;6.13;1.65;;;10.50;96.50;;;;;;5053368;28;20104;-73
2022/03/28 06:11:38;;;;;;;2.55;1.65;;;10.40;96.60;;;;;;5055804;28;20099;-82
2022/03/28 06:14:04;;;;;;;0.75;0.75;;;10.40;96.70;;;;;;5061477;28;20481;-83
2022/03/28 06:16:29;;;;;;;0.10;0.10;;;10.40;96.70;;;;;;5049719;28;20029;-74
2022/03/28 06:18:55;;;;;;;1.67;0.65;;;10.40;96.90;;;;;;5066207;28;20027;-74
2022/03/28 06:21:21;;;;;;;2.38;1.55;;;10.40;97.00;;;;;;5053008;28;20027;-74
2022/03/28 06:23:46;;;;;;;2.25;1.60;;;10.40;96.90;;;;;;5062937;28;20009;-76
2022/03/28 06:26:12;;;;;;;3.10;1.90;;;10.40;96.90;;;;;;5061479;28;20155;-74
2022/03/28 06:28:40;;;;;;;4.15;1.30;;;10.50;96.60;;;;;;5056761;28;20024;-74
2022/03/28 06:31:08;;;;;;;0.57;0.57;;;10.60;96.50;;;;;;5057546;28;20032;-76
2022/03/28 06:33:34;;;;;;;0.17;0.17;;;10.70;96.50;;;;;;5045742;28;20079;-76
2022/03/28 06:36:01;;;;;;;1.13;0.85;;;10.80;96.20;;;;;;5050161;28;20025;-74
2022/03/28 06:38:27;;;;;;;0.00;0.00;;;10.90;96.20;;;;;;5049949;28;20563;-74
2022/03/28 06:40:53;;;;;;;0.00;0.00;;;10.90;96.20;;;;;;5050523;28;20150;-74
2022/03/28 06:43:19;;;;;;;1.65;0.90;;;11.00;96.10;;;;;;5053302;28;20078;-74
2022/03/28 06:45:45;;;;;;;1.08;1.02;;;11.10;95.90;;;;;;5062440;28;20025;-74
2022/03/28 06:48:11;;;;;;;3.35;1.40;;;11.20;95.50;;;;;;5045853;28;20024;-75
2022/03/28 06:50:37;;;;;;;0.38;0.38;;;11.30;95.30;;;;;;5050274;28;20020;-75
2022/03/28 06:53:03;;;;;;;0.75;0.43;;;11.40;95.10;;;;;;5045937;28;20502;-74
2022/03/28 06:55:29;;;;;;;0.30;0.30;;;11.50;94.90;;;;;;5064205;28;20478;-75
2022/03/28 06:57:55;;;;;;;0.45;0.45;;;11.60;95.30;;;;;;5047872;28;20013;-74
2022/03/28 07:00:21;;;;;;;0.77;0.57;;;11.70;94.90;;;;;;5050090;28;20075;-74
2022/03/28 07:02:46;;;;;;;0.88;0.82;;;11.80;94.40;;;;;;5064903;28;20021;-74
2022/03/28 07:05:12;;;;;;;2.83;0.80;;;11.80;94.40;;;;;;5053258;28;20029;-75
2022/03/28 07:07:46;;;;;;;2.72;0.43;;;11.90;94.40;;;;;;5050395;28;20035;-74
2022/03/28 07:10:16;;;;;;;1.92;1.13;;;12.00;94.50;;;;;;5042915;28;20493;-74
2022/03/28 07:12:42;;;;;;;7.68;1.77;;;12.00;94.10;;;;;;5039146;28;20415;-74
2022/03/28 07:15:10;;;;;;;0.73;0.30;;;12.20;94.40;;;;;;5042963;28;20037;-74
2022/03/28 07:17:54;;;;;;;0.95;0.75;;;12.30;94.60;;;;;;5043509;28;20511;-75
2022/03/28 07:20:25;;;;;;;0.00;0.00;;;12.40;93.80;;;;;;5044172;28;20480;-74
2022/03/28 07:22:53;;;;;;;1.17;0.40;;;12.50;93.80;;;;;;5049585;28;20028;-75
2022/03/28 07:25:19;;;;;;;0.77;0.40;;;12.60;93.90;;;;;;5047450;28;20120;-75
2022/03/28 07:27:47;;;;;;;1.10;0.95;;;12.60;93.30;;;;;;5051890;28;20028;-75
2022/03/28 07:30:14;;;;;;;0.75;0.55;;;12.70;93.30;;;;;;5050438;28;20594;-75
2022/03/28 07:32:40;;;;;;;0.25;0.25;;;12.80;92.90;;;;;;5046452;28;20108;-75
2022/03/28 07:35:08;;;;;;;3.70;0.60;;;12.90;92.80;;;;;;5057233;28;20098;-75
2022/03/28 07:37:34;;;;;;;6.22;1.42;;;13.00;92.90;;;;;;5055433;28;20057;-75
2022/03/28 07:40:05;;;;;;;3.15;1.00;;;13.10;92.90;;;;;;5047384;28;20021;-74
2022/03/28 07:42:32;;;;;;;0.30;0.30;;;13.20;92.50;;;;;;5046107;28;20108;-75
2022/03/28 07:44:58;;;;;;;1.27;1.02;;;13.30;92.50;;;;;;5049401;28;20051;-76
2022/03/28 07:47:27;;;;;;;0.30;0.30;;;13.50;92.30;;;;;;5047595;28;20033;-76
2022/03/28 07:49:54;;;;;;;0.75;0.40;;;13.60;92.70;;;;;;5045754;28;20028;-75
2022/03/28 07:52:21;;;;;;;0.22;0.22;;;13.70;91.90;;;;;;5048962;28;20048;-75
2022/03/28 07:54:48;;;;;;;0.50;0.50;;;13.90;91.60;;;;;;5049921;28;20032;-77
2022/03/28 07:57:14;;;;;;;0.55;0.40;;;14.10;91.60;;;;;;5043747;28;20091;-76
2022/03/28 07:59:44;;;;;;;0.30;0.30;;;14.30;91.60;;;;;;5046775;28;20480;-76
2022/03/28 08:02:12;;;;;;;1.20;1.08;;;14.50;91.10;;;;;;5046449;28;20128;-76
2022/03/28 08:04:38;;;;;;;1.52;0.90;;;14.70;90.70;;;;;;5051117;28;20041;-80
2022/03/28 08:07:08;;;;;;;1.05;0.95;;;14.90;90.40;;;;;;5052777;28;20033;-77
2022/03/28 08:09:35;;;;;;;5.60;1.05;;;15.40;89.90;;;;;;5039368;28;20029;-77
2022/03/28 08:12:02;;;;;;;0.77;0.40;;;16.00;88.10;;;;;;5044682;28;20029;-77
2022/03/28 08:14:29;;;;;;;2.47;1.23;;;15.90;87.60;;;;;;5046622;28;20025;-78
2022/03/28 08:16:55;;;;;;;2.15;0.40;;;16.10;87.90;;;;;;5042765;28;20412;-77
2022/03/28 08:19:22;;;;;;;1.13;1.05;;;16.70;86.20;;;;;;5056301;28;20403;-78
2022/03/28 08:21:47;;;;;;;0.75;0.25;;;17.40;85.00;;;;;;5046952;28;20029;-78
2022/03/28 08:24:13;;;;;;;2.03;0.95;;;18.30;82.80;;;;;;5050402;28;20032;-77
2022/03/28 08:26:39;;;;;;;0.45;0.40;;;19.10;82.40;;;;;;5045663;28;20072;-75
2022/03/28 08:29:05;;;;;;;0.63;0.55;;;19.50;80.50;;;;;;5055852;28;20017;-78
2022/03/28 08:31:31;;;;;;;2.85;1.25;;;19.60;80.20;;;;;;5043355;28;20514;-78
2022/03/28 08:33:57;;;;;;;0.20;0.20;;;19.20;80.00;;;;;;5050544;28;20025;-78
2022/03/28 08:36:23;;;;;;;8.55;2.38;;;18.70;80.00;;;;;;5041225;28;20381;-75
2022/03/28 08:38:49;;;;;;;2.92;0.50;;;18.10;82.10;;;;;;5048755;28;20037;-77
2022/03/28 08:41:17;;;;;;;12.10;1.00;;;17.70;83.80;;;;;;5034848;28;20030;-76
2022/03/28 08:43:43;;;;;;;12.25;1.25;;;18.20;82.60;;;;;;5035991;28;20481;-78
2022/03/28 08:46:09;;;;;;;0.75;0.63;;;19.10;81.50;;;;;;5040430;28;20040;-78
2022/03/28 08:48:39;;;;;;;5.55;2.20;;;19.80;79.10;;;;;;5041998;28;20083;-76
2022/03/28 08:51:05;;;;;;;0.90;0.65;;;19.90;79.70;;;;;;5054807;28;20052;-78
2022/03/28 08:53:31;;;;;;;6.55;1.02;;;19.90;79.80;;;;;;5044459;28;20031;-78
2022/03/28 08:55:57;;;;;;;0.57;0.45;;;20.00;78.40;;;;;;5043463;28;20377;-78
2022/03/28 08:58:22;;;;;;;4.28;1.05;;;20.20;78.20;;;;;;5048878;28;20029;-75
2022/03/28 09:00:48;;;;;;;0.45;0.45;;;20.30;78.70;;;;;;5049956;28;20029;-78
2022/03/28 09:03:14;;;;;;;1.77;1.45;;;19.70;79.80;;;;;;5050641;28;20123;-76
2022/03/28 09:05:40;;;;;;;7.97;1.05;;;19.80;79.40;;;;;;5050375;28;20060;-76
2022/03/28 09:08:08;;;;;;;1.85;1.30;;;19.50;80.20;;;;;;5042211;28;20144;-78
2022/03/28 09:10:35;;;;;;;1.52;0.40;;;19.40;80.60;;;;;;5049204;28;20043;-78
2022/03/28 09:13:06;;;;;;;5.82;1.30;;;18.70;80.40;;;;;;5048195;28;20021;-75
2022/03/28 09:15:51;;;;;;;1.55;0.98;;;18.10;82.20;;;;;;5046679;28;20099;-75
2022/03/28 09:18:28;;;;;;;3.05;0.98;;;18.00;83.80;;;;;;5042077;28;20519;-78
2022/03/28 09:20:56;;;;;;;2.40;1.17;;;17.90;83.30;;;;;;5037850;28;20021;-78
2022/03/28 09:23:42;;;;;;;0.80;0.68;;;17.60;84.20;;;;;;5041385;28;20054;-77
2022/03/28 09:26:10;;;;;;;0.30;0.30;;;17.50;85.00;;;;;;5044251;28;20021;-76
2022/03/28 09:28:46;;;;;;;0.47;0.47;;;17.80;84.50;;;;;;5033133;28;20068;-78
2022/03/28 09:31:35;;;;;;;0.30;0.30;;;18.40;83.70;;;;;;5045958;28;20107;-77
2022/03/28 09:34:06;;;;;;;0.47;0.47;;;18.80;83.30;;;;;;5048711;28;20138;-78
2022/03/28 09:36:45;;;;;;;6.82;1.35;;;19.50;82.00;;;;;;5044830;28;20488;-78
2022/03/28 09:39:16;;;;;;;0.50;0.50;;;19.80;80.80;;;;;;5047156;28;20021;-77
2022/03/28 09:41:44;;;;;;;1.05;0.60;;;20.30;79.30;;;;;;5049044;28;20396;-76
2022/03/28 09:44:10;;;;;;;0.95;0.50;;;20.20;80.10;;;;;;5033503;28;20041;-76
2022/03/28 09:46:37;;;;;;;4.63;0.60;;;20.60;80.80;;;;;;5032550;28;20386;-77
2022/03/28 09:49:04;;;;;;;0.40;0.30;;;20.80;80.80;;;;;;5040069;28;20055;-76
2022/03/28 09:51:34;;;;;;;7.85;0.60;;;21.10;79.70;;;;;;5048852;28;20028;-76
2022/03/28 09:54:00;;;;;;;0.40;0.40;;;21.30;78.50;;;;;;5040167;28;20025;-77
2022/03/28 09:56:26;;;;;;;2.42;1.20;;;20.40;78.70;;;;;;5043931;28;20036;-76
2022/03/28 09:58:59;;;;;;;3.47;0.90;;;20.00;80.20;;;;;;5047804;28;20067;-76
2022/03/28 10:01:35;;;;;;;0.65;0.52;;;20.00;80.30;;;;;;5050476;28;20154;-80
2022/03/28 10:04:05;;;;;;;2.28;0.88;;;20.00;80.30;;;;;;5053085;28;20491;-76
2022/03/28 10:06:32;;;;;;;0.43;0.43;;;19.90;80.10;;;;;;5050622;28;20556;-76
2022/03/28 10:08:58;;;;;;;3.25;1.70;;;20.10;80.10;;;;;;5045645;28;20024;-77
2022/03/28 10:11:25;;;;;;;1.33;0.77;;;20.00;80.80;;;;;;5051376;28;20384;-76
2022/03/28 10:13:54;;;;;;;5.95;1.25;;;20.40;78.50;;;;;;5047075;28;20383;-79
2022/03/28 10:16:29;;;;;;;1.35;1.13;;;20.30;79.80;;;;;;5066543;28;20037;-76
2022/03/28 10:18:56;;;;;;;2.28;1.05;;;20.60;78.40;;;;;;5026958;28;20037;-76
2022/03/28 10:21:43;;;;;;;0.35;0.35;;;20.30;80.20;;;;;;5034642;28;20021;-76
2022/03/28 10:24:25;;;;;;;1.52;1.08;;;20.40;80.40;;;;;;5028289;28;20568;-76
2022/03/28 10:26:56;;;;;;;25.73;2.88;;;20.50;80.10;;;;;;5040325;28;20228;-78
2022/03/28 10:29:22;;;;;;;0.63;0.63;;;20.60;80.10;;;;;;5036519;28;20055;-77
2022/03/28 10:31:58;;;;;;;11.02;1.50;;;20.50;82.50;;;;;;5030287;28;20477;-78
2022/03/28 10:34:39;;;;;;;1.30;0.60;;;20.60;79.70;;;;;;5035353;28;20112;-79
2022/03/28 10:37:23;;;;;;;1.50;1.02;;;20.30;77.90;;;;;;5027896;28;20559;-79
2022/03/28 10:39:49;;;;;;;2.25;0.90;;;20.30;79.50;;;;;;5033397;28;20029;-76
2022/03/28 10:42:23;;;;;;;2.20;0.65;;;20.20;79.50;;;;;;5034847;28;20794;-76
2022/03/28 10:45:05;;;;;;;5.68;2.10;;;20.20;78.80;;;;;;5028498;28;20045;-76
2022/03/28 10:47:44;;;;;;;1.48;1.00;;;20.50;80.50;;;;;;5036099;28;20938;-76
2022/03/28 10:50:12;;;;;;;1.08;0.40;;;20.60;78.20;;;;;;5038848;28;20459;-75
2022/03/28 10:52:58;;;;;;;0.57;0.57;;;20.50;78.90;;;;;;5044023;28;20024;-80
2022/03/28 10:55:34;;;;;;;0.80;0.57;;;20.20;79.60;;;;;;5038736;28;20455;-78
2022/03/28 10:58:15;;;;;;;4.53;2.60;;;20.20;80.10;;;;;;5038251;28;20114;-76
2022/03/28 11:01:06;;;;;;;2.30;1.20;;;20.30;79.40;;;;;;5034827;28;20036;-80
2022/03/28 11:03:46;;;;;;;0.77;0.75;;;20.40;78.60;;;;;;5022627;28;20025;-80
2022/03/28 11:06:14;;;;;;;1.55;0.75;;;20.30;79.80;;;;;;5042773;28;20454;-80
2022/03/28 11:08:59;;;;;;;4.53;1.50;;;20.10;80.00;;;;;;5034129;28;20452;-79
2022/03/28 11:11:32;;;;;;;2.60;0.43;;;20.10;81.60;;;;;;5044994;28;20396;-76
2022/03/28 11:14:06;;;;;;;1.35;0.35;;;20.20;79.80;;;;;;5042598;28;20021;-77
2022/03/28 11:16:58;;;;;;;1.23;0.98;;;20.40;81.50;;;;;;5040261;28;20112;-80
2022/03/28 11:19:29;;;;;;;2.17;1.38;;;20.50;79.10;;;;;;5037653;28;20048;-79
2022/03/28 11:22:15;;;;;;;2.22;0.75;;;20.40;78.20;;;;;;5069096;28;20029;-80
2022/03/28 11:24:43;;;;;;;0.73;0.40;;;20.40;78.70;;;;;;5046518;28;20519;-80
2022/03/28 11:27:09;;;;;;;0.77;0.77;;;20.50;79.70;;;;;;5043343;28;20543;-79
2022/03/28 11:29:35;;;;;;;3.33;1.83;;;20.50;77.30;;;;;;5050438;28;20044;-76
2022/03/28 11:32:11;;;;;;;0.52;0.40;;;20.30;77.50;;;;;;5042776;28;20628;-76
2022/03/28 11:34:37;;;;;;;0.80;0.80;;;20.40;79.50;;;;;;5049592;28;20427;-76
2022/03/28 11:37:04;;;;;;;2.28;0.75;;;20.40;77.60;;;;;;5046988;28;20091;-77
2022/03/28 11:39:31;;;;;;;0.60;0.52;;;20.30;78.40;;;;;;5046914;28;20021;-77
2022/03/28 11:41:58;;;;;;;2.05;1.48;;;20.50;78.80;;;;;;5049403;28;20021;-76
2022/03/28 11:44:25;;;;;;;0.88;0.43;;;20.60;81.40;;;;;;5048218;28;20033;-80
2022/03/28 11:46:55;;;;;;;0.57;0.57;;;20.80;80.00;;;;;;5050853;28;20396;-79
2022/03/28 11:49:21;;;;;;;2.25;1.17;;;20.80;78.10;;;;;;5047615;28;20029;-77
2022/03/28 11:51:48;;;;;;;0.85;0.70;;;20.80;77.40;;;;;;5043032;28;20029;-79
2022/03/28 11:54:17;;;;;;;1.63;1.42;;;20.70;78.20;;;;;;5041579;28;20035;-77
2022/03/28 11:59:30;;;;;;;1.75;0.85;;;20.40;76.90;;;;;;5037498;28;20222;-76
2022/03/28 12:02:02;;;;;;;3.47;0.73;;;20.30;77.30;;;;;;5051537;28;20334;-80
2022/03/28 12:04:28;;;;;;;0.40;0.40;;;20.60;79.30;;;;;;5048084;28;20488;-80
2022/03/28 12:06:54;;;;;;;1.35;1.15;;;20.70;78.30;;;;;;5039908;28;20484;-77
2022/03/28 12:09:21;;;;;;;4.38;0.77;;;20.90;78.80;;;;;;5040599;28;20035;-79
2022/03/28 12:11:58;;;;;;;0.85;0.65;;;21.40;80.10;;;;;;5041790;28;20108;-80
2022/03/28 12:14:23;;;;;;;9.50;3.13;;;21.30;76.50;;;;;;5033869;28;20041;-76
2022/03/28 12:16:55;;;;;;;0.52;0.35;;;21.20;77.90;;;;;;5038660;28;20038;-80
2022/03/28 12:19:23;;;;;;;2.92;0.75;;;21.30;77.20;;;;;;5035012;28;20495;-80
2022/03/28 12:21:50;;;;;;;1.85;0.77;;;21.30;78.30;;;;;;5049424;28;20098;-77
2022/03/28 12:24:17;;;;;;;0.77;0.73;;;21.20;78.10;;;;;;5040234;28;20416;-79
2022/03/28 12:26:44;;;;;;;1.60;0.55;;;21.00;78.20;;;;;;5038617;28;20025;-77
2022/03/28 12:29:11;;;;;;;10.65;1.00;;;21.30;77.10;;;;;;5046945;28;20028;-76
2022/03/28 12:31:40;;;;;;;0.63;0.63;;;21.20;77.00;;;;;;5045266;28;20377;-77
2022/03/28 12:34:06;;;;;;;1.08;0.73;;;21.00;77.40;;;;;;5044569;28;20029;-76
2022/03/28 12:36:34;;;;;;;3.10;1.65;;;20.90;78.60;;;;;;5045302;28;20034;-76
2022/03/28 12:39:07;;;;;;;3.10;1.98;;;21.00;78.00;;;;;;5048108;28;20036;-77
2022/03/28 12:41:44;;;;;;;0.85;0.40;;;21.30;78.50;;;;;;5044541;28;20028;-77
2022/03/28 12:44:18;;;;;;;2.00;0.77;;;21.60;77.90;;;;;;5042885;28;20072;-77
2022/03/28 12:46:44;;;;;;;2.35;1.15;;;21.60;80.30;;;;;;5039617;28;20021;-76
2022/03/28 12:49:17;;;;;;;1.23;0.50;;;21.70;77.50;;;;;;5044379;28;20033;-76
2022/03/28 12:51:44;;;;;;;3.72;1.55;;;21.50;79.80;;;;;;5047332;28;20067;-77